sensor_id;sensor_type;location;lat;lon;timestamp;temperature;humidity
70300;HTU21D;57704;51.112;5.878;2023-05-10T00:00:35;14.85;89.01
70300;HTU21D;57704;51.112;5.878;2023-05-10T00:03:01;14.83;89.15
70300;HTU21D;57704;51.112;5.878;2023-05-10T00:05:27;14.79;89.13
70300;HTU21D;57704;51.112;5.878;2023-05-10T00:07:53;14.79;89.27
70300;HTU21D;57704;51.112;5.878;2023-05-10T00:10:18;14.81;89.26
70300;HTU21D;57704;51.112;5.878;2023-05-10T00:12:44;14.77;89.28
70300;HTU21D;57704;51.112;5.878;2023-05-10T00:15:10;14.74;89.31
70300;HTU21D;57704;51.112;5.878;2023-05-10T00:17:36;14.72;89.26
70300;HTU21D;57704;51.112;5.878;2023-05-10T00:20:02;14.72;89.31
70300;HTU21D;57704;51.112;5.878;2023-05-10T00:22:31;14.67;89.31
70300;HTU21D;57704;51.112;5.878;2023-05-10T00:24:57;14.63;89.38
70300;HTU21D;57704;51.112;5.878;2023-05-10T00:27:23;14.62;89.48
70300;HTU21D;57704;51.112;5.878;2023-05-10T00:29:49;14.62;89.56
70300;HTU21D;57704;51.112;5.878;2023-05-10T00:32:15;14.59;89.60
70300;HTU21D;57704;51.112;5.878;2023-05-10T00:34:42;14.60;89.59
70300;HTU21D;57704;51.112;5.878;2023-05-10T00:37:08;14.58;89.55
70300;HTU21D;57704;51.112;5.878;2023-05-10T00:39:34;14.58;89.62
70300;HTU21D;57704;51.112;5.878;2023-05-10T00:42:00;14.59;89.54
70300;HTU21D;57704;51.112;5.878;2023-05-10T00:44:26;14.56;89.55
70300;HTU21D;57704;51.112;5.878;2023-05-10T00:46:53;14.56;89.63
70300;HTU21D;57704;51.112;5.878;2023-05-10T00:49:20;14.59;89.75
70300;HTU21D;57704;51.112;5.878;2023-05-10T00:51:46;14.62;89.64
70300;HTU21D;57704;51.112;5.878;2023-05-10T00:54:14;14.62;89.55
70300;HTU21D;57704;51.112;5.878;2023-05-10T00:56:41;14.62;89.59
70300;HTU21D;57704;51.112;5.878;2023-05-10T00:59:11;14.64;89.61
70300;HTU21D;57704;51.112;5.878;2023-05-10T01:01:37;14.67;89.69
70300;HTU21D;57704;51.112;5.878;2023-05-10T01:04:03;14.71;89.56
70300;HTU21D;57704;51.112;5.878;2023-05-10T01:06:29;14.77;89.56
70300;HTU21D;57704;51.112;5.878;2023-05-10T01:08:56;14.74;89.41
70300;HTU21D;57704;51.112;5.878;2023-05-10T01:11:22;14.77;89.38
70300;HTU21D;57704;51.112;5.878;2023-05-10T01:13:56;14.78;89.34
70300;HTU21D;57704;51.112;5.878;2023-05-10T01:16:24;14.79;89.29
70300;HTU21D;57704;51.112;5.878;2023-05-10T01:18:52;14.80;89.25
70300;HTU21D;57704;51.112;5.878;2023-05-10T01:34:45;14.81;89.02
70300;HTU21D;57704;51.112;5.878;2023-05-10T01:37:21;14.81;89.15
70300;HTU21D;57704;51.112;5.878;2023-05-10T01:40:09;14.80;89.19
70300;HTU21D;57704;51.112;5.878;2023-05-10T01:42:54;14.83;89.34
70300;HTU21D;57704;51.112;5.878;2023-05-10T01:45:56;14.83;89.23
70300;HTU21D;57704;51.112;5.878;2023-05-10T01:48:28;14.82;89.26
70300;HTU21D;57704;51.112;5.878;2023-05-10T01:50:57;14.83;89.28
70300;HTU21D;57704;51.112;5.878;2023-05-10T01:53:23;14.85;89.28
70300;HTU21D;57704;51.112;5.878;2023-05-10T01:55:52;14.86;89.14
70300;HTU21D;57704;51.112;5.878;2023-05-10T01:58:32;14.83;89.12
70300;HTU21D;57704;51.112;5.878;2023-05-10T02:01:02;14.77;89.03
70300;HTU21D;57704;51.112;5.878;2023-05-10T02:03:31;14.71;89.13
70300;HTU21D;57704;51.112;5.878;2023-05-10T02:05:59;14.68;89.20
70300;HTU21D;57704;51.112;5.878;2023-05-10T02:08:26;14.65;89.34
70300;HTU21D;57704;51.112;5.878;2023-05-10T02:10:55;14.62;89.35
70300;HTU21D;57704;51.112;5.878;2023-05-10T02:13:23;14.58;89.28
70300;HTU21D;57704;51.112;5.878;2023-05-10T02:15:51;14.54;89.45
70300;HTU21D;57704;51.112;5.878;2023-05-10T02:18:18;14.54;89.41
70300;HTU21D;57704;51.112;5.878;2023-05-10T02:20:46;14.51;89.47
70300;HTU21D;57704;51.112;5.878;2023-05-10T02:23:14;14.51;89.61
70300;HTU21D;57704;51.112;5.878;2023-05-10T02:25:43;14.53;89.63
70300;HTU21D;57704;51.112;5.878;2023-05-10T02:28:11;14.54;89.63
70300;HTU21D;57704;51.112;5.878;2023-05-10T02:30:39;14.52;89.57
70300;HTU21D;57704;51.112;5.878;2023-05-10T02:33:06;14.52;89.56
70300;HTU21D;57704;51.112;5.878;2023-05-10T02:35:34;14.51;89.54
70300;HTU21D;57704;51.112;5.878;2023-05-10T02:38:02;14.49;89.54
70300;HTU21D;57704;51.112;5.878;2023-05-10T02:40:30;14.49;89.53
70300;HTU21D;57704;51.112;5.878;2023-05-10T02:42:59;14.49;89.65
70300;HTU21D;57704;51.112;5.878;2023-05-10T02:45:30;14.51;89.61
70300;HTU21D;57704;51.112;5.878;2023-05-10T02:47:56;14.51;89.50
70300;HTU21D;57704;51.112;5.878;2023-05-10T02:50:27;14.50;89.47
70300;HTU21D;57704;51.112;5.878;2023-05-10T02:52:59;14.48;89.49
70300;HTU21D;57704;51.112;5.878;2023-05-10T02:55:32;14.48;89.46
70300;HTU21D;57704;51.112;5.878;2023-05-10T02:58:01;14.45;89.44
70300;HTU21D;57704;51.112;5.878;2023-05-10T03:00:28;14.42;89.50
70300;HTU21D;57704;51.112;5.878;2023-05-10T03:02:54;14.41;89.42
70300;HTU21D;57704;51.112;5.878;2023-05-10T03:05:21;14.40;89.57
70300;HTU21D;57704;51.112;5.878;2023-05-10T03:07:48;14.42;89.63
70300;HTU21D;57704;51.112;5.878;2023-05-10T03:10:14;14.41;89.37
70300;HTU21D;57704;51.112;5.878;2023-05-10T03:15:58;14.34;89.44
70300;HTU21D;57704;51.112;5.878;2023-05-10T03:18:36;14.33;89.44
70300;HTU21D;57704;51.112;5.878;2023-05-10T03:21:07;14.29;89.45
70300;HTU21D;57704;51.112;5.878;2023-05-10T03:24:00;14.25;89.34
70300;HTU21D;57704;51.112;5.878;2023-05-10T03:26:28;14.21;89.31
70300;HTU21D;57704;51.112;5.878;2023-05-10T03:29:06;14.19;89.31
70300;HTU21D;57704;51.112;5.878;2023-05-10T03:31:33;14.15;89.32
70300;HTU21D;57704;51.112;5.878;2023-05-10T03:34:00;14.12;89.29
70300;HTU21D;57704;51.112;5.878;2023-05-10T03:36:26;14.08;89.39
70300;HTU21D;57704;51.112;5.878;2023-05-10T03:38:53;14.07;89.37
70300;HTU21D;57704;51.112;5.878;2023-05-10T03:41:19;14.08;89.21
70300;HTU21D;57704;51.112;5.878;2023-05-10T03:43:47;14.04;89.16
70300;HTU21D;57704;51.112;5.878;2023-05-10T03:46:12;13.99;89.18
70300;HTU21D;57704;51.112;5.878;2023-05-10T03:48:38;13.98;89.22
70300;HTU21D;57704;51.112;5.878;2023-05-10T03:51:05;13.99;89.25
70300;HTU21D;57704;51.112;5.878;2023-05-10T03:53:31;13.99;89.31
70300;HTU21D;57704;51.112;5.878;2023-05-10T03:55:56;13.98;89.18
70300;HTU21D;57704;51.112;5.878;2023-05-10T03:58:23;13.94;89.15
70300;HTU21D;57704;51.112;5.878;2023-05-10T04:00:50;13.90;89.09
70300;HTU21D;57704;51.112;5.878;2023-05-10T04:03:16;13.90;89.25
70300;HTU21D;57704;51.112;5.878;2023-05-10T04:05:43;13.90;89.25
70300;HTU21D;57704;51.112;5.878;2023-05-10T04:08:08;13.89;89.27
70300;HTU21D;57704;51.112;5.878;2023-05-10T04:10:34;13.93;89.27
70300;HTU21D;57704;51.112;5.878;2023-05-10T04:13:00;13.93;89.18
70300;HTU21D;57704;51.112;5.878;2023-05-10T04:15:27;13.95;89.27
70300;HTU21D;57704;51.112;5.878;2023-05-10T04:17:53;13.95;89.21
70300;HTU21D;57704;51.112;5.878;2023-05-10T04:20:19;13.98;89.19
70300;HTU21D;57704;51.112;5.878;2023-05-10T04:22:45;13.99;89.21
70300;HTU21D;57704;51.112;5.878;2023-05-10T04:25:11;14.04;89.20
70300;HTU21D;57704;51.112;5.878;2023-05-10T04:27:37;14.07;89.08
70300;HTU21D;57704;51.112;5.878;2023-05-10T04:30:04;14.06;89.05
70300;HTU21D;57704;51.112;5.878;2023-05-10T04:32:30;14.08;89.05
70300;HTU21D;57704;51.112;5.878;2023-05-10T04:34:57;14.11;89.09
70300;HTU21D;57704;51.112;5.878;2023-05-10T04:37:23;14.13;89.04
70300;HTU21D;57704;51.112;5.878;2023-05-10T04:39:48;14.19;88.90
70300;HTU21D;57704;51.112;5.878;2023-05-10T04:42:14;14.18;88.88
70300;HTU21D;57704;51.112;5.878;2023-05-10T04:44:41;14.20;88.74
70300;HTU21D;57704;51.112;5.878;2023-05-10T04:47:07;14.18;88.69
70300;HTU21D;57704;51.112;5.878;2023-05-10T04:49:33;14.18;88.84
70300;HTU21D;57704;51.112;5.878;2023-05-10T04:51:58;14.20;88.73
70300;HTU21D;57704;51.112;5.878;2023-05-10T04:54:24;14.13;88.66
70300;HTU21D;57704;51.112;5.878;2023-05-10T04:56:50;14.14;88.76
70300;HTU21D;57704;51.112;5.878;2023-05-10T04:59:16;14.13;88.82
70300;HTU21D;57704;51.112;5.878;2023-05-10T05:01:42;14.15;88.88
70300;HTU21D;57704;51.112;5.878;2023-05-10T05:04:08;14.20;88.89
70300;HTU21D;57704;51.112;5.878;2023-05-10T05:06:34;14.22;88.83
70300;HTU21D;57704;51.112;5.878;2023-05-10T05:09:00;14.24;88.76
70300;HTU21D;57704;51.112;5.878;2023-05-10T05:11:26;14.27;88.70
70300;HTU21D;57704;51.112;5.878;2023-05-10T05:13:52;14.30;88.56
70300;HTU21D;57704;51.112;5.878;2023-05-10T05:16:18;14.28;88.50
70300;HTU21D;57704;51.112;5.878;2023-05-10T05:18:44;14.29;88.54
70300;HTU21D;57704;51.112;5.878;2023-05-10T05:21:18;14.29;88.56
70300;HTU21D;57704;51.112;5.878;2023-05-10T05:23:44;14.28;88.45
70300;HTU21D;57704;51.112;5.878;2023-05-10T05:26:10;14.29;88.57
70300;HTU21D;57704;51.112;5.878;2023-05-10T05:28:37;14.32;88.57
70300;HTU21D;57704;51.112;5.878;2023-05-10T05:31:07;14.33;88.53
70300;HTU21D;57704;51.112;5.878;2023-05-10T05:33:33;14.36;88.62
70300;HTU21D;57704;51.112;5.878;2023-05-10T05:36:04;14.44;88.65
70300;HTU21D;57704;51.112;5.878;2023-05-10T05:38:31;14.52;88.61
70300;HTU21D;57704;51.112;5.878;2023-05-10T05:40:57;14.62;88.62
70300;HTU21D;57704;51.112;5.878;2023-05-10T05:43:23;14.67;88.25
70300;HTU21D;57704;51.112;5.878;2023-05-10T05:45:49;14.70;88.14
70300;HTU21D;57704;51.112;5.878;2023-05-10T05:48:15;14.71;87.92
70300;HTU21D;57704;51.112;5.878;2023-05-10T05:50:41;14.69;87.86
70300;HTU21D;57704;51.112;5.878;2023-05-10T05:53:08;14.71;87.77
70300;HTU21D;57704;51.112;5.878;2023-05-10T05:55:34;14.67;87.54
70300;HTU21D;57704;51.112;5.878;2023-05-10T05:58:00;14.65;87.43
70300;HTU21D;57704;51.112;5.878;2023-05-10T06:00:26;14.59;87.48
70300;HTU21D;57704;51.112;5.878;2023-05-10T06:02:52;14.56;87.54
70300;HTU21D;57704;51.112;5.878;2023-05-10T06:05:18;14.58;87.68
70300;HTU21D;57704;51.112;5.878;2023-05-10T06:07:44;14.59;87.57
70300;HTU21D;57704;51.112;5.878;2023-05-10T06:10:10;14.57;87.64
70300;HTU21D;57704;51.112;5.878;2023-05-10T06:12:36;14.63;87.78
70300;HTU21D;57704;51.112;5.878;2023-05-10T06:15:03;14.66;87.64
70300;HTU21D;57704;51.112;5.878;2023-05-10T06:17:30;14.72;87.61
70300;HTU21D;57704;51.112;5.878;2023-05-10T06:19:56;14.80;87.67
70300;HTU21D;57704;51.112;5.878;2023-05-10T06:22:22;14.91;87.64
70300;HTU21D;57704;51.112;5.878;2023-05-10T06:24:49;15.06;87.64
70300;HTU21D;57704;51.112;5.878;2023-05-10T06:27:15;15.23;87.69
70300;HTU21D;57704;51.112;5.878;2023-05-10T06:29:42;15.37;87.23
70300;HTU21D;57704;51.112;5.878;2023-05-10T06:32:07;15.53;87.03
70300;HTU21D;57704;51.112;5.878;2023-05-10T06:34:33;15.69;86.74
70300;HTU21D;57704;51.112;5.878;2023-05-10T06:37:00;15.87;86.89
70300;HTU21D;57704;51.112;5.878;2023-05-10T06:39:25;16.17;87.33
70300;HTU21D;57704;51.112;5.878;2023-05-10T06:41:51;16.48;86.99
70300;HTU21D;57704;51.112;5.878;2023-05-10T06:44:21;16.72;86.06
70300;HTU21D;57704;51.112;5.878;2023-05-10T06:46:47;16.88;85.18
70300;HTU21D;57704;51.112;5.878;2023-05-10T06:49:13;16.91;84.27
70300;HTU21D;57704;51.112;5.878;2023-05-10T06:51:39;16.81;83.31
70300;HTU21D;57704;51.112;5.878;2023-05-10T06:54:06;16.73;83.82
70300;HTU21D;57704;51.112;5.878;2023-05-10T06:56:32;16.76;83.90
70300;HTU21D;57704;51.112;5.878;2023-05-10T06:58:58;16.76;83.78
70300;HTU21D;57704;51.112;5.878;2023-05-10T07:01:24;16.72;83.31
70300;HTU21D;57704;51.112;5.878;2023-05-10T07:03:50;16.70;83.25
70300;HTU21D;57704;51.112;5.878;2023-05-10T07:06:16;16.71;83.07
70300;HTU21D;57704;51.112;5.878;2023-05-10T07:08:42;16.59;82.54
70300;HTU21D;57704;51.112;5.878;2023-05-10T07:11:08;16.49;82.65
70300;HTU21D;57704;51.112;5.878;2023-05-10T07:13:34;16.41;82.71
70300;HTU21D;57704;51.112;5.878;2023-05-10T07:16:00;16.35;83.30
70300;HTU21D;57704;51.112;5.878;2023-05-10T07:18:28;16.32;83.04
70300;HTU21D;57704;51.112;5.878;2023-05-10T07:20:54;16.22;82.71
70300;HTU21D;57704;51.112;5.878;2023-05-10T07:23:20;16.15;82.71
70300;HTU21D;57704;51.112;5.878;2023-05-10T07:25:48;16.12;83.42
70300;HTU21D;57704;51.112;5.878;2023-05-10T07:28:15;16.07;82.97
70300;HTU21D;57704;51.112;5.878;2023-05-10T07:30:42;16.05;82.81
70300;HTU21D;57704;51.112;5.878;2023-05-10T07:33:09;15.99;82.94
70300;HTU21D;57704;51.112;5.878;2023-05-10T07:35:36;15.95;82.79
70300;HTU21D;57704;51.112;5.878;2023-05-10T07:38:02;15.90;83.23
70300;HTU21D;57704;51.112;5.878;2023-05-10T07:40:28;15.88;83.08
70300;HTU21D;57704;51.112;5.878;2023-05-10T07:42:54;15.76;82.91
70300;HTU21D;57704;51.112;5.878;2023-05-10T07:45:20;15.72;83.59
70300;HTU21D;57704;51.112;5.878;2023-05-10T07:47:46;15.73;83.86
70300;HTU21D;57704;51.112;5.878;2023-05-10T07:50:12;15.69;82.91
70300;HTU21D;57704;51.112;5.878;2023-05-10T07:52:38;15.61;83.29
70300;HTU21D;57704;51.112;5.878;2023-05-10T07:55:04;15.58;83.65
70300;HTU21D;57704;51.112;5.878;2023-05-10T07:57:31;15.59;84.01
70300;HTU21D;57704;51.112;5.878;2023-05-10T07:59:56;15.61;83.83
70300;HTU21D;57704;51.112;5.878;2023-05-10T08:02:22;15.61;83.90
70300;HTU21D;57704;51.112;5.878;2023-05-10T08:04:48;15.60;83.61
70300;HTU21D;57704;51.112;5.878;2023-05-10T08:07:14;15.60;83.80
70300;HTU21D;57704;51.112;5.878;2023-05-10T08:09:40;15.60;83.37
70300;HTU21D;57704;51.112;5.878;2023-05-10T08:12:06;15.52;83.25
70300;HTU21D;57704;51.112;5.878;2023-05-10T08:14:32;15.48;83.29
70300;HTU21D;57704;51.112;5.878;2023-05-10T08:16:58;15.47;83.55
70300;HTU21D;57704;51.112;5.878;2023-05-10T08:19:24;15.48;83.65
70300;HTU21D;57704;51.112;5.878;2023-05-10T08:21:49;15.53;83.63
70300;HTU21D;57704;51.112;5.878;2023-05-10T08:24:15;15.59;83.44
70300;HTU21D;57704;51.112;5.878;2023-05-10T08:26:41;15.68;83.75
70300;HTU21D;57704;51.112;5.878;2023-05-10T08:29:07;15.80;83.78
70300;HTU21D;57704;51.112;5.878;2023-05-10T08:31:33;15.92;83.23
70300;HTU21D;57704;51.112;5.878;2023-05-10T08:33:59;15.97;83.21
70300;HTU21D;57704;51.112;5.878;2023-05-10T08:36:26;16.07;83.10
70300;HTU21D;57704;51.112;5.878;2023-05-10T08:38:52;16.11;82.48
70300;HTU21D;57704;51.112;5.878;2023-05-10T08:41:20;16.05;82.17
70300;HTU21D;57704;51.112;5.878;2023-05-10T08:43:51;15.99;81.93
70300;HTU21D;57704;51.112;5.878;2023-05-10T08:46:19;16.01;82.80
70300;HTU21D;57704;51.112;5.878;2023-05-10T08:48:46;16.08;82.50
70300;HTU21D;57704;51.112;5.878;2023-05-10T08:51:19;16.10;81.98
70300;HTU21D;57704;51.112;5.878;2023-05-10T08:53:46;16.04;81.46
70300;HTU21D;57704;51.112;5.878;2023-05-10T08:56:12;16.04;82.38
70300;HTU21D;57704;51.112;5.878;2023-05-10T08:58:38;16.07;81.82
70300;HTU21D;57704;51.112;5.878;2023-05-10T09:01:07;16.10;82.61
70300;HTU21D;57704;51.112;5.878;2023-05-10T09:03:35;16.19;82.21
70300;HTU21D;57704;51.112;5.878;2023-05-10T09:06:01;16.18;81.59
70300;HTU21D;57704;51.112;5.878;2023-05-10T09:08:27;16.16;81.63
70300;HTU21D;57704;51.112;5.878;2023-05-10T09:10:57;16.20;81.58
70300;HTU21D;57704;51.112;5.878;2023-05-10T09:13:24;16.30;82.23
70300;HTU21D;57704;51.112;5.878;2023-05-10T09:15:51;16.49;81.95
70300;HTU21D;57704;51.112;5.878;2023-05-10T09:18:17;16.62;82.10
70300;HTU21D;57704;51.112;5.878;2023-05-10T09:20:43;16.74;81.77
70300;HTU21D;57704;51.112;5.878;2023-05-10T09:23:09;16.76;80.97
70300;HTU21D;57704;51.112;5.878;2023-05-10T09:25:35;16.66;80.46
70300;HTU21D;57704;51.112;5.878;2023-05-10T09:28:08;16.62;81.02
70300;HTU21D;57704;51.112;5.878;2023-05-10T09:30:34;16.65;81.14
70300;HTU21D;57704;51.112;5.878;2023-05-10T09:33:01;16.77;81.07
70300;HTU21D;57704;51.112;5.878;2023-05-10T09:35:30;16.88;80.03
70300;HTU21D;57704;51.112;5.878;2023-05-10T09:38:00;17.04;79.33
70300;HTU21D;57704;51.112;5.878;2023-05-10T09:40:28;17.09;77.86
70300;HTU21D;57704;51.112;5.878;2023-05-10T09:43:01;17.15;78.90
70300;HTU21D;57704;51.112;5.878;2023-05-10T09:45:32;17.26;79.07
70300;HTU21D;57704;51.112;5.878;2023-05-10T09:47:59;17.43;78.01
70300;HTU21D;57704;51.112;5.878;2023-05-10T09:50:27;17.59;78.22
70300;HTU21D;57704;51.112;5.878;2023-05-10T09:52:56;17.67;77.36
70300;HTU21D;57704;51.112;5.878;2023-05-10T09:55:43;17.82;77.40
70300;HTU21D;57704;51.112;5.878;2023-05-10T09:58:15;17.94;76.35
70300;HTU21D;57704;51.112;5.878;2023-05-10T10:00:43;17.98;75.37
70300;HTU21D;57704;51.112;5.878;2023-05-10T10:03:14;18.02;76.04
70300;HTU21D;57704;51.112;5.878;2023-05-10T10:05:42;18.05;76.38
70300;HTU21D;57704;51.112;5.878;2023-05-10T10:08:10;18.12;75.46
70300;HTU21D;57704;51.112;5.878;2023-05-10T10:10:36;18.05;74.72
70300;HTU21D;57704;51.112;5.878;2023-05-10T10:13:02;17.90;74.60
70300;HTU21D;57704;51.112;5.878;2023-05-10T10:15:28;17.79;74.97
70300;HTU21D;57704;51.112;5.878;2023-05-10T10:17:54;17.77;74.96
70300;HTU21D;57704;51.112;5.878;2023-05-10T10:20:22;17.67;75.21
70300;HTU21D;57704;51.112;5.878;2023-05-10T10:22:48;17.61;75.05
70300;HTU21D;57704;51.112;5.878;2023-05-10T10:25:16;17.54;76.05
70300;HTU21D;57704;51.112;5.878;2023-05-10T10:35:46;17.28;77.63
70300;HTU21D;57704;51.112;5.878;2023-05-10T10:38:13;17.44;76.37
70300;HTU21D;57704;51.112;5.878;2023-05-10T10:40:39;17.55;76.25
70300;HTU21D;57704;51.112;5.878;2023-05-10T10:43:26;17.76;75.37
70300;HTU21D;57704;51.112;5.878;2023-05-10T10:46:13;17.88;75.33
70300;HTU21D;57704;51.112;5.878;2023-05-10T10:48:40;18.05;75.21
70300;HTU21D;57704;51.112;5.878;2023-05-10T10:51:07;18.23;74.67
70300;HTU21D;57704;51.112;5.878;2023-05-10T10:53:33;18.49;75.49
70300;HTU21D;57704;51.112;5.878;2023-05-10T10:56:08;18.98;74.33
70300;HTU21D;57704;51.112;5.878;2023-05-10T10:58:36;19.26;72.65
70300;HTU21D;57704;51.112;5.878;2023-05-10T11:01:17;19.27;71.67
70300;HTU21D;57704;51.112;5.878;2023-05-10T11:06:35;18.96;72.22
70300;HTU21D;57704;51.112;5.878;2023-05-10T11:09:09;18.86;72.95
70300;HTU21D;57704;51.112;5.878;2023-05-10T11:11:36;18.82;73.31
70300;HTU21D;57704;51.112;5.878;2023-05-10T11:14:13;18.88;73.47
70300;HTU21D;57704;51.112;5.878;2023-05-10T11:16:44;18.97;73.12
70300;HTU21D;57704;51.112;5.878;2023-05-10T11:19:12;19.09;72.17
70300;HTU21D;57704;51.112;5.878;2023-05-10T11:21:50;19.12;72.15
70300;HTU21D;57704;51.112;5.878;2023-05-10T11:24:21;19.16;71.46
70300;HTU21D;57704;51.112;5.878;2023-05-10T11:26:50;19.07;72.24
70300;HTU21D;57704;51.112;5.878;2023-05-10T11:29:19;19.27;72.38
70300;HTU21D;57704;51.112;5.878;2023-05-10T11:31:47;19.53;71.30
70300;HTU21D;57704;51.112;5.878;2023-05-10T11:34:27;19.63;70.56
70300;HTU21D;57704;51.112;5.878;2023-05-10T11:36:56;19.72;70.62
70300;HTU21D;57704;51.112;5.878;2023-05-10T11:39:29;19.91;70.33
70300;HTU21D;57704;51.112;5.878;2023-05-10T11:41:57;19.98;69.31
70300;HTU21D;57704;51.112;5.878;2023-05-10T11:44:24;20.00;69.10
70300;HTU21D;57704;51.112;5.878;2023-05-10T11:46:54;19.96;69.48
70300;HTU21D;57704;51.112;5.878;2023-05-10T11:49:20;20.09;69.18
70300;HTU21D;57704;51.112;5.878;2023-05-10T11:51:48;20.34;68.67
70300;HTU21D;57704;51.112;5.878;2023-05-10T11:54:14;20.72;68.30
70300;HTU21D;57704;51.112;5.878;2023-05-10T11:56:40;21.00;67.39
70300;HTU21D;57704;51.112;5.878;2023-05-10T11:59:06;21.24;65.95
70300;HTU21D;57704;51.112;5.878;2023-05-10T12:01:34;21.15;66.87
70300;HTU21D;57704;51.112;5.878;2023-05-10T12:04:00;21.35;65.67
70300;HTU21D;57704;51.112;5.878;2023-05-10T12:06:31;21.50;66.76
70300;HTU21D;57704;51.112;5.878;2023-05-10T12:08:58;22.07;65.98
70300;HTU21D;57704;51.112;5.878;2023-05-10T12:11:26;22.85;64.72
70300;HTU21D;57704;51.112;5.878;2023-05-10T12:13:53;23.36;63.18
70300;HTU21D;57704;51.112;5.878;2023-05-10T12:16:23;24.32;61.73
70300;HTU21D;57704;51.112;5.878;2023-05-10T12:18:57;25.49;59.19
70300;HTU21D;57704;51.112;5.878;2023-05-10T12:21:24;26.25;53.80
70300;HTU21D;57704;51.112;5.878;2023-05-10T12:23:52;26.30;50.16
70300;HTU21D;57704;51.112;5.878;2023-05-10T12:26:23;26.70;49.73
70300;HTU21D;57704;51.112;5.878;2023-05-10T12:28:50;26.73;50.09
70300;HTU21D;57704;51.112;5.878;2023-05-10T12:31:16;26.64;48.26
70300;HTU21D;57704;51.112;5.878;2023-05-10T12:33:43;25.99;51.21
70300;HTU21D;57704;51.112;5.878;2023-05-10T12:36:11;25.81;49.52
70300;HTU21D;57704;51.112;5.878;2023-05-10T12:38:39;25.84;50.79
70300;HTU21D;57704;51.112;5.878;2023-05-10T12:41:07;26.09;51.05
70300;HTU21D;57704;51.112;5.878;2023-05-10T12:43:35;25.76;52.35
70300;HTU21D;57704;51.112;5.878;2023-05-10T12:46:09;25.20;52.13
70300;HTU21D;57704;51.112;5.878;2023-05-10T12:48:36;24.53;50.53
70300;HTU21D;57704;51.112;5.878;2023-05-10T12:51:04;23.87;54.44
70300;HTU21D;57704;51.112;5.878;2023-05-10T12:53:30;23.30;55.29
70300;HTU21D;57704;51.112;5.878;2023-05-10T12:55:57;22.83;58.20
70300;HTU21D;57704;51.112;5.878;2023-05-10T12:58:23;22.55;56.41
70300;HTU21D;57704;51.112;5.878;2023-05-10T13:00:49;22.39;57.07
70300;HTU21D;57704;51.112;5.878;2023-05-10T13:03:17;22.22;57.55
70300;HTU21D;57704;51.112;5.878;2023-05-10T13:05:43;22.12;58.45
70300;HTU21D;57704;51.112;5.878;2023-05-10T13:08:09;22.23;58.22
70300;HTU21D;57704;51.112;5.878;2023-05-10T13:10:35;22.26;57.02
70300;HTU21D;57704;51.112;5.878;2023-05-10T13:13:01;22.32;57.22
70300;HTU21D;57704;51.112;5.878;2023-05-10T13:15:28;22.32;57.09
70300;HTU21D;57704;51.112;5.878;2023-05-10T13:17:54;22.31;56.98
70300;HTU21D;57704;51.112;5.878;2023-05-10T13:20:20;22.32;57.10
70300;HTU21D;57704;51.112;5.878;2023-05-10T13:22:46;22.16;55.75
70300;HTU21D;57704;51.112;5.878;2023-05-10T13:25:12;21.92;58.37
70300;HTU21D;57704;51.112;5.878;2023-05-10T13:27:39;21.97;57.87
70300;HTU21D;57704;51.112;5.878;2023-05-10T13:30:07;21.97;57.52
70300;HTU21D;57704;51.112;5.878;2023-05-10T13:32:34;21.95;57.38
70300;HTU21D;57704;51.112;5.878;2023-05-10T13:35:00;22.01;57.29
70300;HTU21D;57704;51.112;5.878;2023-05-10T13:37:26;22.13;57.02
70300;HTU21D;57704;51.112;5.878;2023-05-10T13:39:52;21.96;55.26
70300;HTU21D;57704;51.112;5.878;2023-05-10T13:42:18;21.70;57.51
70300;HTU21D;57704;51.112;5.878;2023-05-10T13:44:44;21.66;57.59
70300;HTU21D;57704;51.112;5.878;2023-05-10T13:47:10;21.61;57.28
70300;HTU21D;57704;51.112;5.878;2023-05-10T13:49:36;21.50;58.32
70300;HTU21D;57704;51.112;5.878;2023-05-10T13:52:03;21.52;58.37
70300;HTU21D;57704;51.112;5.878;2023-05-10T13:54:36;21.47;57.58
70300;HTU21D;57704;51.112;5.878;2023-05-10T13:57:02;21.30;58.04
70300;HTU21D;57704;51.112;5.878;2023-05-10T13:59:29;21.24;58.33
70300;HTU21D;57704;51.112;5.878;2023-05-10T14:01:57;21.02;57.82
70300;HTU21D;57704;51.112;5.878;2023-05-10T14:04:24;20.77;58.69
70300;HTU21D;57704;51.112;5.878;2023-05-10T14:06:50;20.73;59.12
70300;HTU21D;57704;51.112;5.878;2023-05-10T14:09:16;20.68;58.03
70300;HTU21D;57704;51.112;5.878;2023-05-10T14:11:42;20.65;59.87
70300;HTU21D;57704;51.112;5.878;2023-05-10T14:14:09;20.83;59.38
70300;HTU21D;57704;51.112;5.878;2023-05-10T14:16:35;21.05;59.16
70300;HTU21D;57704;51.112;5.878;2023-05-10T14:19:01;21.16;58.45
70300;HTU21D;57704;51.112;5.878;2023-05-10T14:21:27;21.43;58.10
70300;HTU21D;57704;51.112;5.878;2023-05-10T14:23:56;21.65;57.64
70300;HTU21D;57704;51.112;5.878;2023-05-10T14:26:22;21.53;55.57
70300;HTU21D;57704;51.112;5.878;2023-05-10T14:28:49;21.35;56.13
70300;HTU21D;57704;51.112;5.878;2023-05-10T14:31:15;21.30;58.57
70300;HTU21D;57704;51.112;5.878;2023-05-10T14:33:42;21.31;57.90
70300;HTU21D;57704;51.112;5.878;2023-05-10T14:36:08;21.35;57.93
70300;HTU21D;57704;51.112;5.878;2023-05-10T14:38:35;21.47;57.26
70300;HTU21D;57704;51.112;5.878;2023-05-10T14:41:01;21.55;56.74
70300;HTU21D;57704;51.112;5.878;2023-05-10T14:43:27;21.38;56.22
70300;HTU21D;57704;51.112;5.878;2023-05-10T14:45:53;21.18;57.93
70300;HTU21D;57704;51.112;5.878;2023-05-10T14:48:19;21.08;57.34
70300;HTU21D;57704;51.112;5.878;2023-05-10T14:50:46;21.10;57.99
70300;HTU21D;57704;51.112;5.878;2023-05-10T14:53:12;21.04;57.89
70300;HTU21D;57704;51.112;5.878;2023-05-10T14:55:38;21.04;57.78
70300;HTU21D;57704;51.112;5.878;2023-05-10T14:58:04;21.24;58.41
70300;HTU21D;57704;51.112;5.878;2023-05-10T15:00:30;21.59;57.60
70300;HTU21D;57704;51.112;5.878;2023-05-10T15:02:57;21.84;56.45
70300;HTU21D;57704;51.112;5.878;2023-05-10T15:05:23;22.03;55.59
70300;HTU21D;57704;51.112;5.878;2023-05-10T15:07:49;22.17;55.23
70300;HTU21D;57704;51.112;5.878;2023-05-10T15:10:15;22.32;56.17
70300;HTU21D;57704;51.112;5.878;2023-05-10T15:12:41;22.52;54.78
70300;HTU21D;57704;51.112;5.878;2023-05-10T15:15:07;22.42;54.36
70300;HTU21D;57704;51.112;5.878;2023-05-10T15:17:36;22.31;55.14
70300;HTU21D;57704;51.112;5.878;2023-05-10T15:20:03;22.11;54.87
70300;HTU21D;57704;51.112;5.878;2023-05-10T15:22:30;22.05;55.82
70300;HTU21D;57704;51.112;5.878;2023-05-10T15:24:58;22.11;56.16
70300;HTU21D;57704;51.112;5.878;2023-05-10T15:27:25;22.37;55.49
70300;HTU21D;57704;51.112;5.878;2023-05-10T15:29:52;22.62;54.68
70300;HTU21D;57704;51.112;5.878;2023-05-10T15:32:18;22.61;53.94
70300;HTU21D;57704;51.112;5.878;2023-05-10T15:34:43;22.37;53.01
70300;HTU21D;57704;51.112;5.878;2023-05-10T15:37:09;21.96;53.82
70300;HTU21D;57704;51.112;5.878;2023-05-10T15:39:35;21.69;54.47
70300;HTU21D;57704;51.112;5.878;2023-05-10T15:42:01;21.57;55.60
70300;HTU21D;57704;51.112;5.878;2023-05-10T15:44:28;21.30;55.69